createdAt,value
2018-07-07T00:01:18.651Z,100873.68
2018-07-07T00:03:47.930Z,100882.62
2018-07-07T00:06:17.084Z,100882.89
2018-07-07T00:08:46.315Z,100884.11
2018-07-07T00:11:15.462Z,100877.28
2018-07-07T00:13:44.732Z,100883.15
2018-07-07T00:16:14.535Z,100883.32
2018-07-07T00:18:44.595Z,100890.73
2018-07-07T00:21:13.809Z,100884.89
2018-07-07T00:23:43.054Z,100883.95
2018-07-07T00:26:12.452Z,100884.58
2018-07-07T00:28:41.863Z,100881.34
2018-07-07T00:31:11.133Z,100881.91
2018-07-07T00:33:40.371Z,100877.31
2018-07-07T00:36:09.532Z,100875.75
2018-07-07T00:38:38.785Z,100877.42
2018-07-07T00:41:08.053Z,100875.02
2018-07-07T00:43:37.350Z,100868.73
2018-07-07T00:46:06.655Z,100878.77
2018-07-07T00:48:35.851Z,100876.32
2018-07-07T00:51:05.006Z,100876.00
2018-07-07T00:53:34.157Z,100873.33
2018-07-07T00:56:03.300Z,100882.43
2018-07-07T00:58:32.449Z,100872.03
2018-07-07T01:01:01.809Z,100875.44
2018-07-07T01:03:31.135Z,100878.44
2018-07-07T01:06:00.502Z,100877.00
2018-07-07T01:08:29.744Z,100879.17
2018-07-07T01:10:59.043Z,100878.15
2018-07-07T01:13:28.442Z,100881.36
2018-07-07T01:15:57.847Z,100884.60
2018-07-07T01:18:27.359Z,100881.25
2018-07-07T01:20:56.686Z,100887.87
2018-07-07T01:23:25.962Z,100884.76
2018-07-07T01:25:55.669Z,100875.27
2018-07-07T01:28:25.485Z,100880.30
2018-07-07T01:30:54.976Z,100886.38
2018-07-07T01:33:24.745Z,100881.70
2018-07-07T01:35:54.625Z,100878.91
2018-07-07T01:38:24.721Z,100874.75
2018-07-07T01:40:53.970Z,100881.42
2018-07-07T01:43:23.557Z,100875.52
2018-07-07T01:45:53.142Z,100880.66
2018-07-07T01:48:22.462Z,100879.94
2018-07-07T01:50:51.686Z,100883.89
2018-07-07T01:53:20.966Z,100881.45
2018-07-07T01:55:50.221Z,100874.78
2018-07-07T01:58:19.463Z,100877.20
2018-07-07T02:00:48.809Z,100877.08
2018-07-07T02:03:18.065Z,100869.59
2018-07-07T02:05:47.316Z,100870.52
2018-07-07T02:08:16.676Z,100867.16
2018-07-07T02:10:45.991Z,100868.06
2018-07-07T02:13:15.230Z,100869.01
2018-07-07T02:15:44.573Z,100867.59
2018-07-07T02:18:13.902Z,100870.06
2018-07-07T02:20:43.131Z,100873.81
2018-07-07T02:23:12.415Z,100869.59
2018-07-07T02:25:41.643Z,100870.63
2018-07-07T02:28:10.915Z,100873.27
2018-07-07T02:30:40.150Z,100877.20
2018-07-07T02:33:09.417Z,100870.05
2018-07-07T02:35:38.659Z,100871.66
2018-07-07T02:38:08.102Z,100873.14
2018-07-07T02:40:37.377Z,100872.56
2018-07-07T02:43:06.703Z,100872.91
2018-07-07T02:45:36.082Z,100872.08
2018-07-07T02:48:05.344Z,100868.34
2018-07-07T02:50:34.671Z,100873.36
2018-07-07T02:53:04.030Z,100876.15
2018-07-07T02:55:33.283Z,100873.52
2018-07-07T02:58:02.532Z,100873.52
2018-07-07T03:00:31.738Z,100876.65
2018-07-07T03:03:01.023Z,100880.03
2018-07-07T03:05:30.262Z,100880.20
2018-07-07T03:07:59.544Z,100875.78
2018-07-07T03:10:28.874Z,100884.53
2018-07-07T03:12:58.102Z,100880.33
2018-07-07T03:15:27.452Z,100883.21
2018-07-07T03:17:56.598Z,100884.09
2018-07-07T03:20:25.853Z,100885.73
2018-07-07T03:22:55.459Z,100885.52
2018-07-07T03:25:24.781Z,100889.50
2018-07-07T03:27:54.150Z,100897.83
2018-07-07T03:30:23.486Z,100898.73
2018-07-07T03:32:52.742Z,100899.50
2018-07-07T03:35:22.071Z,100904.04
2018-07-07T03:37:51.312Z,100908.00
2018-07-07T03:40:20.551Z,100905.81
2018-07-07T03:42:49.718Z,100916.83
2018-07-07T03:45:19.238Z,100910.19
2018-07-07T03:47:48.570Z,100917.09
2018-07-07T03:50:17.929Z,100918.13
2018-07-07T03:52:47.169Z,100919.85
2018-07-07T03:55:16.466Z,100916.77
2018-07-07T03:57:45.734Z,100914.72
2018-07-07T04:00:14.973Z,100917.53
2018-07-07T04:02:44.268Z,100922.31
2018-07-07T04:05:13.572Z,100918.05
2018-07-07T04:07:42.875Z,100926.58
2018-07-07T04:10:12.376Z,100926.25
2018-07-07T04:12:41.771Z,100927.29
2018-07-07T04:15:11.121Z,100929.02
2018-07-07T04:17:40.454Z,100929.19
2018-07-07T04:20:09.717Z,100924.01
2018-07-07T04:22:38.973Z,100930.14
2018-07-07T04:25:08.181Z,100930.58
2018-07-07T04:27:37.471Z,100931.55
2018-07-07T04:30:06.787Z,100932.29
2018-07-07T04:32:36.150Z,100925.20
2018-07-07T04:35:05.381Z,100927.08
2018-07-07T04:37:34.645Z,100929.72
2018-07-07T04:40:03.990Z,100927.44
2018-07-07T04:42:33.388Z,100926.84
2018-07-07T04:45:02.676Z,100927.47
2018-07-07T04:47:31.994Z,100928.51
2018-07-07T04:50:01.416Z,100930.39
2018-07-07T04:52:30.744Z,100933.17
2018-07-07T04:55:00.301Z,100931.73
2018-07-07T04:57:29.562Z,100933.55
2018-07-07T04:59:58.901Z,100931.28
2018-07-07T05:02:28.170Z,100940.31
2018-07-07T05:04:57.506Z,100936.41
2018-07-07T05:07:26.855Z,100940.39
2018-07-07T05:09:56.117Z,100939.77
2018-07-07T05:12:25.379Z,100944.77
2018-07-07T05:14:54.721Z,100945.03
2018-07-07T05:17:23.944Z,100945.93
2018-07-07T05:19:53.289Z,100950.47
2018-07-07T05:22:22.466Z,100949.52
2018-07-07T05:24:51.802Z,100956.20
2018-07-07T05:27:21.051Z,100952.42
2018-07-07T05:29:50.290Z,100954.57
2018-07-07T05:32:19.668Z,100951.58
2018-07-07T05:34:48.910Z,100954.89
2018-07-07T05:37:18.298Z,100953.57
2018-07-07T05:39:47.598Z,100963.05
2018-07-07T05:42:16.906Z,100964.77
2018-07-07T05:44:46.206Z,100965.22
2018-07-07T05:47:15.610Z,100960.73
2018-07-07T05:49:51.416Z,100967.03
2018-07-07T05:52:20.723Z,100961.59
2018-07-07T05:54:49.916Z,100967.14
2018-07-07T05:57:19.181Z,100968.16
2018-07-07T05:59:48.411Z,100972.87
2018-07-07T06:02:17.745Z,100977.68
2018-07-07T06:04:47.263Z,100984.39
2018-07-07T06:07:16.572Z,100978.66
2018-07-07T06:09:45.841Z,100987.52
2018-07-07T06:12:15.153Z,100983.41
2018-07-07T06:14:44.554Z,100991.16
2018-07-07T06:17:13.992Z,100987.88
2018-07-07T06:19:43.281Z,100986.97
2018-07-07T06:22:12.558Z,100987.86
2018-07-07T06:24:41.734Z,100987.93
2018-07-07T06:27:10.974Z,100990.59
2018-07-07T06:29:40.371Z,100986.41
2018-07-07T06:32:09.699Z,100987.14
2018-07-07T06:34:39.062Z,100986.08
2018-07-07T06:37:08.375Z,100988.70
2018-07-07T06:39:37.663Z,100987.41
2018-07-07T06:42:07.225Z,100986.05
2018-07-07T06:44:36.566Z,100991.03
2018-07-07T06:47:06.095Z,100982.81
2018-07-07T06:49:35.397Z,100981.78
2018-07-07T06:52:06.538Z,100987.41
2018-07-07T06:54:35.905Z,100991.16
2018-07-07T06:57:05.279Z,100994.56
2018-07-07T06:59:34.570Z,100984.50
2018-07-07T07:02:03.834Z,100991.02
2018-07-07T07:04:33.094Z,100994.86
2018-07-07T07:07:02.448Z,100990.45
2018-07-07T07:09:31.718Z,100994.62
2018-07-07T07:12:01.256Z,100989.34
2018-07-07T07:14:31.932Z,100990.59
2018-07-07T07:17:01.405Z,100985.41
2018-07-07T07:19:30.674Z,100989.70
2018-07-07T07:21:59.942Z,100985.70
2018-07-07T07:24:29.195Z,100986.19
2018-07-07T07:26:58.495Z,100988.41
2018-07-07T07:29:27.732Z,100993.04
2018-07-07T07:31:57.141Z,100988.57
2018-07-07T07:34:26.339Z,100992.53
2018-07-07T07:36:55.623Z,100988.57
2018-07-07T07:39:24.857Z,100988.95
2018-07-07T07:41:54.189Z,100978.25
2018-07-07T07:44:23.492Z,100978.20
2018-07-07T07:46:52.688Z,100975.22
2018-07-07T07:49:21.938Z,100973.56
2018-07-07T07:51:51.294Z,100980.39
2018-07-07T07:54:20.583Z,100968.72
2018-07-07T07:56:49.948Z,100972.20
2018-07-07T07:59:19.181Z,100978.47
2018-07-07T08:01:48.502Z,100978.79
2018-07-07T08:04:17.789Z,100975.16
2018-07-07T08:06:47.096Z,100977.84
2018-07-07T08:09:16.347Z,100974.36
2018-07-07T08:11:45.594Z,100974.54
2018-07-07T08:14:14.910Z,100974.22
2018-07-07T08:16:44.547Z,100975.37
2018-07-07T08:19:14.155Z,100975.82
2018-07-07T08:21:43.921Z,100966.99
2018-07-07T08:24:13.323Z,100965.02
2018-07-07T08:26:42.745Z,100971.45
2018-07-07T08:29:11.647Z,100962.73
2018-07-07T08:31:40.610Z,100965.36
2018-07-07T08:34:09.554Z,100969.64
2018-07-07T08:36:38.687Z,100964.50
2018-07-07T08:39:07.705Z,100970.70
2018-07-07T08:41:36.714Z,100968.66
2018-07-07T08:44:06.188Z,100959.42
2018-07-07T08:46:35.498Z,100960.62
2018-07-07T08:49:04.966Z,100955.48
2018-07-07T08:51:34.310Z,100958.50
2018-07-07T08:54:03.528Z,100957.59
2018-07-07T08:56:32.807Z,100953.72
2018-07-07T08:59:02.067Z,100952.02
2018-07-07T09:01:31.286Z,100956.48
2018-07-07T09:04:00.758Z,100957.12
2018-07-07T09:06:30.282Z,100961.33
2018-07-07T09:08:59.710Z,100958.55
2018-07-07T09:11:29.029Z,100954.85
2018-07-07T09:13:58.389Z,100951.03
2018-07-07T09:16:27.607Z,100947.86
2018-07-07T09:18:56.967Z,100944.42
2018-07-07T09:21:26.231Z,100944.78
2018-07-07T09:23:55.507Z,100941.09
2018-07-07T09:26:24.812Z,100935.64
2018-07-07T09:28:53.982Z,100928.31
2018-07-07T09:31:23.227Z,100930.38
2018-07-07T09:33:52.544Z,100941.84
2018-07-07T09:36:21.808Z,100940.40
2018-07-07T09:38:51.253Z,100942.66
2018-07-07T09:41:20.468Z,100935.55
2018-07-07T09:43:49.707Z,100932.56
2018-07-07T09:46:19.046Z,100935.23
2018-07-07T09:48:48.327Z,100933.83
2018-07-07T09:51:17.594Z,100935.88
2018-07-07T09:53:47.012Z,100929.48
2018-07-07T09:56:16.318Z,100926.64
2018-07-07T09:58:45.614Z,100919.22
2018-07-07T10:01:14.897Z,100927.06
2018-07-07T10:03:44.115Z,100930.09
2018-07-07T10:06:13.442Z,100924.28
2018-07-07T10:08:42.862Z,100929.52
2018-07-07T10:11:12.086Z,100923.07
2018-07-07T10:13:41.527Z,100919.91
2018-07-07T10:16:10.885Z,100920.45
2018-07-07T10:18:40.125Z,100923.95
2018-07-07T10:21:09.527Z,100916.23
2018-07-07T10:23:38.935Z,100915.33
2018-07-07T10:26:08.327Z,100914.63
2018-07-07T10:28:37.648Z,100905.91
2018-07-07T10:31:07.014Z,100902.83
2018-07-07T10:33:36.350Z,100919.77
2018-07-07T10:36:05.635Z,100909.42
2018-07-07T10:38:35.050Z,100906.33
2018-07-07T10:41:04.547Z,100910.63
2018-07-07T10:43:33.994Z,100917.56
2018-07-07T10:46:03.329Z,100921.82
2018-07-07T10:48:33.821Z,100913.84
2018-07-07T10:51:03.126Z,100908.88
2018-07-07T10:53:32.488Z,100914.07
2018-07-07T10:56:01.887Z,100909.96
2018-07-07T10:58:31.211Z,100908.48
2018-07-07T11:01:00.550Z,100905.20
2018-07-07T11:03:29.732Z,100900.27
2018-07-07T11:05:58.692Z,100903.03
2018-07-07T11:08:27.811Z,100901.73
2018-07-07T11:10:57.123Z,100893.12
2018-07-07T11:13:26.479Z,100892.64
2018-07-07T11:15:55.683Z,100888.91
2018-07-07T11:18:24.978Z,100880.98
2018-07-07T11:20:54.276Z,100871.34
2018-07-07T11:23:23.675Z,100876.41
2018-07-07T11:25:52.965Z,100879.48
2018-07-07T11:28:22.306Z,100877.50
2018-07-07T11:30:51.814Z,100874.28
2018-07-07T11:33:21.087Z,100872.94
2018-07-07T11:35:50.297Z,100873.06
2018-07-07T11:38:19.600Z,100880.07
2018-07-07T11:40:48.991Z,100879.61
2018-07-07T11:43:18.392Z,100876.55
2018-07-07T11:45:47.686Z,100874.39
2018-07-07T11:48:17.101Z,100884.45
2018-07-07T11:50:46.469Z,100877.56
2018-07-07T11:53:15.714Z,100873.95
2018-07-07T11:55:44.954Z,100873.87
2018-07-07T11:58:14.475Z,100872.52
2018-07-07T12:00:43.762Z,100878.38
2018-07-07T12:03:13.105Z,100876.14
2018-07-07T12:05:42.344Z,100866.52
2018-07-07T12:08:13.991Z,100878.69
2018-07-07T12:10:40.910Z,100876.18
2018-07-07T12:13:10.306Z,100880.59
2018-07-07T12:15:39.609Z,100876.41
2018-07-07T12:18:08.917Z,100872.22
2018-07-07T12:20:38.154Z,100866.79
2018-07-07T12:23:07.509Z,100864.80
2018-07-07T12:25:36.754Z,100867.30
2018-07-07T12:28:05.994Z,100867.63
2018-07-07T12:30:35.410Z,100853.94
2018-07-07T12:33:04.814Z,100852.66
2018-07-07T12:35:34.119Z,100861.23
2018-07-07T12:38:03.542Z,100862.05
2018-07-07T12:40:32.839Z,100863.75
2018-07-07T12:43:02.238Z,100854.86
2018-07-07T12:45:31.676Z,100856.86
2018-07-07T12:48:01.023Z,100852.41
2018-07-07T12:50:30.327Z,100845.22
2018-07-07T12:52:59.732Z,100844.36
2018-07-07T12:55:29.655Z,100850.72
2018-07-07T12:57:59.074Z,100855.66
2018-07-07T13:00:28.426Z,100848.34
2018-07-07T13:02:57.774Z,100845.74
2018-07-07T13:05:27.001Z,100837.50
2018-07-07T13:07:56.204Z,100833.02
2018-07-07T13:10:25.758Z,100838.72
2018-07-07T13:12:55.116Z,100844.06
2018-07-07T13:15:24.423Z,100844.05
2018-07-07T13:17:53.628Z,100849.05
2018-07-07T13:20:22.964Z,100845.48
2018-07-07T13:22:52.259Z,100845.75
2018-07-07T13:25:21.560Z,100844.08
2018-07-07T13:27:50.809Z,100829.75
2018-07-07T13:30:20.060Z,100837.77
2018-07-07T13:32:49.206Z,100834.44
2018-07-07T13:35:18.441Z,100828.88
2018-07-07T13:37:47.756Z,100832.48
2018-07-07T13:40:17.155Z,100838.02
2018-07-07T13:42:46.330Z,100835.53
2018-07-07T13:45:15.739Z,100838.25
2018-07-07T13:47:45.059Z,100838.09
2018-07-07T13:50:14.361Z,100839.05
2018-07-07T13:52:43.623Z,100844.97
2018-07-07T13:55:12.955Z,100834.77
2018-07-07T13:57:42.362Z,100843.55
2018-07-07T14:00:11.773Z,100831.66
2018-07-07T14:02:41.046Z,100837.91
2018-07-07T14:05:10.474Z,100840.87
2018-07-07T14:07:39.709Z,100839.03
2018-07-07T14:10:08.975Z,100836.56
2018-07-07T14:12:38.224Z,100842.98
2018-07-07T14:15:07.459Z,100841.75
2018-07-07T14:17:36.962Z,100827.91
2018-07-07T14:20:06.155Z,100838.97
2018-07-07T14:22:35.422Z,100832.31
2018-07-07T14:25:04.908Z,100834.47
2018-07-07T14:27:34.145Z,100834.77
2018-07-07T14:30:03.576Z,100828.55
2018-07-07T14:32:32.883Z,100829.97
2018-07-07T14:35:02.183Z,100825.20
2018-07-07T14:37:31.544Z,100824.39
2018-07-07T14:40:01.757Z,100824.48
2018-07-07T14:42:48.926Z,100809.45
2018-07-07T14:45:28.116Z,100818.02
2018-07-07T14:48:02.605Z,100818.77
2018-07-07T14:50:31.894Z,100806.63
2018-07-07T14:53:01.079Z,100812.86
2018-07-07T14:55:30.653Z,100818.33
2018-07-07T14:57:59.941Z,100814.92
2018-07-07T15:00:29.806Z,100816.06
2018-07-07T15:02:59.231Z,100813.39
2018-07-07T15:05:28.502Z,100814.69
2018-07-07T15:07:57.885Z,100810.44
2018-07-07T15:10:27.725Z,100810.33
2018-07-07T15:12:57.490Z,100811.07
2018-07-07T15:15:27.452Z,100809.73
2018-07-07T15:17:56.851Z,100818.83
2018-07-07T15:20:26.839Z,100805.28
2018-07-07T15:22:56.204Z,100809.67
2018-07-07T15:25:25.458Z,100815.53
2018-07-07T15:27:54.764Z,100804.51
2018-07-07T15:30:24.092Z,100812.09
2018-07-07T15:32:53.349Z,100817.80
2018-07-07T15:35:22.659Z,100810.27
2018-07-07T15:37:52.028Z,100810.98
2018-07-07T15:40:21.378Z,100815.64
2018-07-07T15:42:50.694Z,100809.67
2018-07-07T15:45:20.079Z,100810.88
2018-07-07T15:47:49.555Z,100811.47
2018-07-07T15:50:18.987Z,100809.52
2018-07-07T15:52:48.243Z,100816.98
2018-07-07T15:55:17.394Z,100804.29
2018-07-07T15:57:46.792Z,100817.25
2018-07-07T16:00:16.184Z,100810.91
2018-07-07T16:02:45.494Z,100805.15
2018-07-07T16:05:14.798Z,100800.41
2018-07-07T16:07:44.058Z,100800.95
2018-07-07T16:10:13.878Z,100793.81
2018-07-07T16:12:42.810Z,100799.04
2018-07-07T16:15:12.299Z,100797.67
2018-07-07T16:17:41.567Z,100792.09
2018-07-07T16:20:11.102Z,100797.03
2018-07-07T16:22:40.258Z,100789.06
2018-07-07T16:25:09.626Z,100792.36
2018-07-07T16:27:38.959Z,100776.86
2018-07-07T16:30:08.306Z,100783.17
2018-07-07T16:32:37.597Z,100782.16
2018-07-07T16:35:06.914Z,100782.36
2018-07-07T16:37:36.168Z,100780.15
2018-07-07T16:40:05.535Z,100776.73
2018-07-07T16:42:36.924Z,100780.56
2018-07-07T16:45:06.313Z,100777.41
2018-07-07T16:47:35.438Z,100780.77
2018-07-07T16:50:04.860Z,100781.62
2018-07-07T16:52:34.055Z,100785.22
2018-07-07T16:55:03.451Z,100784.58
2018-07-07T16:57:32.840Z,100784.93
2018-07-07T17:00:02.296Z,100779.62
2018-07-07T17:02:31.547Z,100783.77
2018-07-07T17:05:00.788Z,100784.70
2018-07-07T17:07:30.457Z,100779.88
2018-07-07T17:10:00.005Z,100784.50
2018-07-07T17:12:29.325Z,100787.38
2018-07-07T17:14:58.778Z,100782.92
2018-07-07T17:17:28.159Z,100780.43
2018-07-07T17:19:57.574Z,100789.45
2018-07-07T17:22:26.995Z,100780.02
2018-07-07T17:24:56.353Z,100777.03
2018-07-07T17:27:26.522Z,100779.10
2018-07-07T17:29:55.794Z,100779.64
2018-07-07T17:32:25.010Z,100774.00
2018-07-07T17:34:54.361Z,100776.66
2018-07-07T17:37:23.747Z,100784.06
2018-07-07T17:39:53.084Z,100781.16
2018-07-07T17:42:22.360Z,100783.83
2018-07-07T17:44:51.701Z,100781.90
2018-07-07T17:47:21.128Z,100781.67
2018-07-07T17:49:50.378Z,100786.28
2018-07-07T17:52:19.607Z,100789.05
2018-07-07T17:54:48.897Z,100782.91
2018-07-07T17:57:18.234Z,100786.84
2018-07-07T17:59:47.473Z,100790.61
2018-07-07T18:02:16.927Z,100787.41
2018-07-07T18:04:46.233Z,100796.53
2018-07-07T18:07:15.633Z,100792.13
2018-07-07T18:09:44.899Z,100798.45
2018-07-07T18:12:14.302Z,100798.78
2018-07-07T18:14:43.491Z,100793.54
2018-07-07T18:17:12.722Z,100804.59
2018-07-07T18:19:42.089Z,100805.03
2018-07-07T18:22:11.350Z,100801.16
2018-07-07T18:24:40.573Z,100804.16
2018-07-07T18:27:10.055Z,100799.70
2018-07-07T18:29:39.393Z,100805.39
2018-07-07T18:32:08.751Z,100795.78
2018-07-07T18:34:38.007Z,100803.23
2018-07-07T18:37:07.455Z,100803.59
2018-07-07T18:39:36.755Z,100803.92
2018-07-07T18:42:06.056Z,100801.85
2018-07-07T18:44:35.306Z,100799.52
2018-07-07T18:47:04.640Z,100805.69
2018-07-07T18:49:34.386Z,100803.77
2018-07-07T18:52:03.765Z,100804.72
2018-07-07T18:54:33.065Z,100807.34
2018-07-07T18:57:02.419Z,100808.84
2018-07-07T18:59:31.659Z,100800.23
2018-07-07T19:02:00.980Z,100804.52
2018-07-07T19:04:30.222Z,100805.31
2018-07-07T19:06:59.553Z,100798.27
2018-07-07T19:09:28.729Z,100805.09
2018-07-07T19:11:57.974Z,100798.47
2018-07-07T19:14:27.231Z,100801.55
2018-07-07T19:16:56.584Z,100801.70
2018-07-07T19:19:25.836Z,100802.69
2018-07-07T19:22:00.190Z,100798.62
2018-07-07T19:24:34.495Z,100797.62
2018-07-07T19:27:05.401Z,100801.25
2018-07-07T19:29:34.591Z,100802.63
2018-07-07T19:32:08.850Z,100804.88
2018-07-07T19:34:43.209Z,100807.86
2018-07-07T19:37:17.287Z,100798.47
2018-07-07T19:39:47.150Z,100809.09
2018-07-07T19:42:16.563Z,100805.43
2018-07-07T19:44:45.770Z,100812.12
2018-07-07T19:47:15.004Z,100806.64
2018-07-07T19:49:44.304Z,100818.24
2018-07-07T19:52:13.699Z,100822.61
2018-07-07T19:54:43.110Z,100819.87
2018-07-07T19:57:12.538Z,100816.44
2018-07-07T19:59:41.798Z,100817.71
2018-07-07T20:02:11.118Z,100827.72
2018-07-07T20:04:40.382Z,100822.25
2018-07-07T20:07:09.620Z,100826.81
2018-07-07T20:09:38.742Z,100831.99
2018-07-07T20:12:08.014Z,100822.08
2018-07-07T20:14:37.262Z,100825.27
2018-07-07T20:17:10.778Z,100828.73
2018-07-07T20:20:59.059Z,100821.63
2018-07-07T20:23:30.202Z,100818.78
2018-07-07T20:26:02.211Z,100818.19
2018-07-07T20:28:36.504Z,100824.63
2018-07-07T20:31:05.712Z,100822.23
2018-07-07T20:33:34.981Z,100821.87
2018-07-07T20:36:04.135Z,100821.98
2018-07-07T20:38:33.135Z,100829.85
2018-07-07T20:41:03.332Z,100823.72
2018-07-07T20:43:32.687Z,100816.02
2018-07-07T20:46:02.188Z,100819.05
2018-07-07T20:48:31.550Z,100823.31
2018-07-07T20:51:00.783Z,100821.45
2018-07-07T20:53:30.301Z,100813.74
2018-07-07T20:55:59.564Z,100816.94
2018-07-07T20:58:28.804Z,100824.80
2018-07-07T21:00:58.175Z,100822.00
2018-07-07T21:03:27.409Z,100821.23
2018-07-07T21:05:56.677Z,100823.81
2018-07-07T21:08:25.972Z,100825.77
2018-07-07T21:10:55.324Z,100824.49
2018-07-07T21:13:24.612Z,100829.86
2018-07-07T21:15:53.841Z,100821.54
2018-07-07T21:18:23.194Z,100815.98
2018-07-07T21:20:52.412Z,100821.61
2018-07-07T21:23:21.852Z,100818.22
2018-07-07T21:25:51.318Z,100820.36
2018-07-07T21:28:20.643Z,100821.61
2018-07-07T21:30:50.082Z,100827.17
2018-07-07T21:33:19.323Z,100823.84
2018-07-07T21:35:48.577Z,100820.89
2018-07-07T21:38:17.941Z,100822.00
2018-07-07T21:40:47.167Z,100829.20
2018-07-07T21:43:16.535Z,100824.36
2018-07-07T21:45:45.808Z,100822.73
2018-07-07T21:48:15.129Z,100821.42
2018-07-07T21:50:44.412Z,100826.17
2018-07-07T21:53:13.740Z,100828.56
2018-07-07T21:55:43.132Z,100821.97
2018-07-07T21:58:17.461Z,100828.12
2018-07-07T22:01:02.830Z,100819.59
2018-07-07T22:03:37.327Z,100823.58
2018-07-07T22:06:08.626Z,100828.78
2018-07-07T22:08:38.353Z,100827.79
2018-07-07T22:11:07.914Z,100827.42
2018-07-07T22:13:37.231Z,100828.28
2018-07-07T22:16:06.602Z,100826.33
2018-07-07T22:18:36.031Z,100832.58
2018-07-07T22:21:16.282Z,100825.28
2018-07-07T22:23:45.813Z,100820.26
2018-07-07T22:26:15.044Z,100833.15
2018-07-07T22:28:44.281Z,100821.06
2018-07-07T22:31:13.518Z,100824.38
2018-07-07T22:33:42.778Z,100822.12
2018-07-07T22:36:16.941Z,100818.27
2018-07-07T22:38:51.103Z,100814.83
2018-07-07T22:41:20.668Z,100817.55
2018-07-07T22:43:50.006Z,100821.22
2018-07-07T22:46:19.365Z,100815.98
2018-07-07T22:48:48.635Z,100815.45
2018-07-07T22:51:17.885Z,100817.67
2018-07-07T22:53:47.107Z,100817.25
2018-07-07T22:56:16.362Z,100817.53
2018-07-07T22:58:45.653Z,100822.89
2018-07-07T23:01:14.904Z,100813.67
2018-07-07T23:03:44.218Z,100830.01
2018-07-07T23:06:13.623Z,100828.47
2018-07-07T23:08:43.310Z,100833.26
2018-07-07T23:11:12.642Z,100836.30
2018-07-07T23:13:41.883Z,100830.31
2018-07-07T23:16:11.236Z,100826.67
2018-07-07T23:18:40.498Z,100836.60
2018-07-07T23:21:09.730Z,100833.46
2018-07-07T23:23:39.003Z,100826.67
2018-07-07T23:26:08.242Z,100829.69
2018-07-07T23:28:37.522Z,100835.09
2018-07-07T23:31:06.937Z,100832.41
2018-07-07T23:33:36.318Z,100835.44
2018-07-07T23:36:05.610Z,100841.80
2018-07-07T23:38:35.035Z,100835.49
2018-07-07T23:41:04.257Z,100833.33
2018-07-07T23:43:33.524Z,100836.27
2018-07-07T23:46:03.050Z,100846.03
2018-07-07T23:48:32.530Z,100837.22
2018-07-07T23:51:01.817Z,100853.53
2018-07-07T23:53:30.993Z,100848.19
2018-07-07T23:56:00.350Z,100840.13
2018-07-07T23:58:29.614Z,100845.86
